sensor_id;sensor_type;location;lat;lon;timestamp;pressure;altitude;pressure_sealevel;temperature;humidity
75656;BME280;64252;51.094;13.714;2022-10-29T00:00:37;101047.28;;;11.24;100.00
75656;BME280;64252;51.094;13.714;2022-10-29T00:03:03;101048.88;;;11.25;100.00
75656;BME280;64252;51.094;13.714;2022-10-29T00:05:29;101056.19;;;11.26;100.00
75656;BME280;64252;51.094;13.714;2022-10-29T00:07:55;101042.88;;;11.27;100.00
75656;BME280;64252;51.094;13.714;2022-10-29T00:10:20;101054.53;;;11.25;100.00
75656;BME280;64252;51.094;13.714;2022-10-29T00:12:46;101065.53;;;11.30;100.00
75656;BME280;64252;51.094;13.714;2022-10-29T00:15:12;101056.19;;;11.26;100.00
75656;BME280;64252;51.094;13.714;2022-10-29T00:17:37;101061.84;;;11.26;100.00
75656;BME280;64252;51.094;13.714;2022-10-29T00:20:04;101067.06;;;11.24;100.00
75656;BME280;64252;51.094;13.714;2022-10-29T00:22:29;101059.31;;;11.21;100.00
75656;BME280;64252;51.094;13.714;2022-10-29T00:24:55;101067.22;;;11.12;100.00
75656;BME280;64252;51.094;13.714;2022-10-29T00:27:20;101067.19;;;11.09;100.00
75656;BME280;64252;51.094;13.714;2022-10-29T00:29:46;101064.00;;;11.10;100.00
75656;BME280;64252;51.094;13.714;2022-10-29T00:32:11;101057.47;;;11.06;100.00
75656;BME280;64252;51.094;13.714;2022-10-29T00:34:37;101064.59;;;11.00;100.00
75656;BME280;64252;51.094;13.714;2022-10-29T00:37:03;101071.44;;;10.99;100.00
75656;BME280;64252;51.094;13.714;2022-10-29T00:39:29;101064.53;;;10.96;100.00
75656;BME280;64252;51.094;13.714;2022-10-29T00:41:55;101063.63;;;10.92;100.00
75656;BME280;64252;51.094;13.714;2022-10-29T00:44:24;101056.78;;;10.93;100.00
75656;BME280;64252;51.094;13.714;2022-10-29T00:49:23;101068.19;;;10.97;100.00
75656;BME280;64252;51.094;13.714;2022-10-29T00:51:51;101067.75;;;10.95;100.00
75656;BME280;64252;51.094;13.714;2022-10-29T00:54:17;101059.56;;;10.90;100.00
75656;BME280;64252;51.094;13.714;2022-10-29T00:56:48;101057.94;;;10.89;100.00
75656;BME280;64252;51.094;13.714;2022-10-29T00:59:16;101057.81;;;10.82;100.00
75656;BME280;64252;51.094;13.714;2022-10-29T01:01:43;101056.28;;;10.88;100.00
75656;BME280;64252;51.094;13.714;2022-10-29T01:04:10;101058.75;;;10.89;100.00
75656;BME280;64252;51.094;13.714;2022-10-29T01:06:37;101056.75;;;10.90;100.00
75656;BME280;64252;51.094;13.714;2022-10-29T01:09:03;101040.25;;;10.92;100.00
75656;BME280;64252;51.094;13.714;2022-10-29T01:11:45;101057.09;;;10.88;100.00
75656;BME280;64252;51.094;13.714;2022-10-29T01:14:55;101061.00;;;10.80;100.00
75656;BME280;64252;51.094;13.714;2022-10-29T01:20:31;101041.59;;;10.79;100.00
75656;BME280;64252;51.094;13.714;2022-10-29T01:28:27;101053.03;;;10.86;100.00
75656;BME280;64252;51.094;13.714;2022-10-29T01:39:36;101047.84;;;11.11;100.00
75656;BME280;64252;51.094;13.714;2022-10-29T01:45:12;101061.97;;;11.33;100.00
75656;BME280;64252;51.094;13.714;2022-10-29T01:47:44;101053.91;;;11.35;100.00
75656;BME280;64252;51.094;13.714;2022-10-29T01:50:14;101058.94;;;11.45;100.00
75656;BME280;64252;51.094;13.714;2022-10-29T01:52:43;101061.75;;;11.45;99.85
75656;BME280;64252;51.094;13.714;2022-10-29T01:55:15;101060.25;;;11.52;99.58
75656;BME280;64252;51.094;13.714;2022-10-29T01:57:40;101060.34;;;11.59;98.87
75656;BME280;64252;51.094;13.714;2022-10-29T02:00:13;101070.94;;;11.62;98.18
75656;BME280;64252;51.094;13.714;2022-10-29T02:05:33;101059.47;;;11.77;96.89
75656;BME280;64252;51.094;13.714;2022-10-29T02:13:43;101048.09;;;11.74;96.21
75656;BME280;64252;51.094;13.714;2022-10-29T02:16:12;101056.22;;;11.75;96.42
75656;BME280;64252;51.094;13.714;2022-10-29T02:18:44;101058.16;;;11.71;96.86
75656;BME280;64252;51.094;13.714;2022-10-29T02:21:14;101035.88;;;11.70;96.67
75656;BME280;64252;51.094;13.714;2022-10-29T02:23:40;101045.16;;;11.67;96.59
75656;BME280;64252;51.094;13.714;2022-10-29T02:26:05;101049.97;;;11.66;96.45
75656;BME280;64252;51.094;13.714;2022-10-29T02:28:31;101045.47;;;11.62;97.13
75656;BME280;64252;51.094;13.714;2022-10-29T02:30:56;101043.81;;;11.61;97.10
75656;BME280;64252;51.094;13.714;2022-10-29T02:33:22;101042.19;;;11.60;97.01
75656;BME280;64252;51.094;13.714;2022-10-29T02:35:48;101046.16;;;11.55;97.58
75656;BME280;64252;51.094;13.714;2022-10-29T02:38:13;101046.94;;;11.52;97.67
75656;BME280;64252;51.094;13.714;2022-10-29T02:40:39;101045.78;;;11.57;97.51
75656;BME280;64252;51.094;13.714;2022-10-29T02:43:04;101048.66;;;11.60;97.48
75656;BME280;64252;51.094;13.714;2022-10-29T02:45:30;101049.50;;;11.61;97.13
75656;BME280;64252;51.094;13.714;2022-10-29T02:47:55;101055.19;;;11.64;96.98
75656;BME280;64252;51.094;13.714;2022-10-29T02:50:21;101064.13;;;11.66;97.05
75656;BME280;64252;51.094;13.714;2022-10-29T02:52:46;101062.53;;;11.69;96.77
75656;BME280;64252;51.094;13.714;2022-10-29T02:55:12;101059.72;;;11.69;97.17
75656;BME280;64252;51.094;13.714;2022-10-29T02:57:37;101058.53;;;11.70;96.56
75656;BME280;64252;51.094;13.714;2022-10-29T03:00:04;101057.78;;;11.73;96.78
75656;BME280;64252;51.094;13.714;2022-10-29T03:02:30;101056.06;;;11.68;96.50
75656;BME280;64252;51.094;13.714;2022-10-29T03:04:56;101056.00;;;11.65;96.45
75656;BME280;64252;51.094;13.714;2022-10-29T03:07:21;101062.03;;;11.63;96.89
75656;BME280;64252;51.094;13.714;2022-10-29T03:09:47;101069.34;;;11.64;97.35
75656;BME280;64252;51.094;13.714;2022-10-29T03:12:13;101061.56;;;11.58;97.32
75656;BME280;64252;51.094;13.714;2022-10-29T03:14:38;101079.78;;;11.60;97.58
75656;BME280;64252;51.094;13.714;2022-10-29T03:17:04;101073.63;;;11.55;97.76
75656;BME280;64252;51.094;13.714;2022-10-29T03:19:29;101084.88;;;11.51;97.22
75656;BME280;64252;51.094;13.714;2022-10-29T03:21:55;101081.56;;;11.45;97.85
75656;BME280;64252;51.094;13.714;2022-10-29T03:24:20;101082.31;;;11.42;98.35
75656;BME280;64252;51.094;13.714;2022-10-29T03:26:45;101076.06;;;11.30;98.26
75656;BME280;64252;51.094;13.714;2022-10-29T03:29:11;101076.28;;;11.21;99.04
75656;BME280;64252;51.094;13.714;2022-10-29T03:31:36;101077.72;;;11.12;99.32
75656;BME280;64252;51.094;13.714;2022-10-29T03:34:02;101088.91;;;11.05;99.56
75656;BME280;64252;51.094;13.714;2022-10-29T03:36:27;101087.16;;;10.96;100.00
75656;BME280;64252;51.094;13.714;2022-10-29T03:38:53;101077.34;;;10.90;100.00
75656;BME280;64252;51.094;13.714;2022-10-29T03:41:18;101093.78;;;10.85;100.00
75656;BME280;64252;51.094;13.714;2022-10-29T03:43:44;101092.00;;;10.77;100.00
75656;BME280;64252;51.094;13.714;2022-10-29T03:46:09;101089.03;;;10.70;100.00
75656;BME280;64252;51.094;13.714;2022-10-29T03:48:35;101094.63;;;10.66;100.00
75656;BME280;64252;51.094;13.714;2022-10-29T03:51:05;101106.72;;;10.67;100.00
75656;BME280;64252;51.094;13.714;2022-10-29T03:53:32;101114.69;;;10.61;100.00
75656;BME280;64252;51.094;13.714;2022-10-29T03:55:57;101106.50;;;10.56;100.00
75656;BME280;64252;51.094;13.714;2022-10-29T03:58:24;101106.56;;;10.60;100.00
75656;BME280;64252;51.094;13.714;2022-10-29T04:00:59;101094.84;;;10.57;100.00
75656;BME280;64252;51.094;13.714;2022-10-29T04:03:27;101096.69;;;10.50;100.00
75656;BME280;64252;51.094;13.714;2022-10-29T04:05:53;101098.56;;;10.42;100.00
75656;BME280;64252;51.094;13.714;2022-10-29T04:08:19;101097.97;;;10.33;100.00
75656;BME280;64252;51.094;13.714;2022-10-29T04:10:45;101103.59;;;10.33;100.00
75656;BME280;64252;51.094;13.714;2022-10-29T04:13:12;101102.63;;;10.26;100.00
75656;BME280;64252;51.094;13.714;2022-10-29T04:15:38;101107.91;;;10.27;100.00
75656;BME280;64252;51.094;13.714;2022-10-29T04:18:03;101115.41;;;10.20;100.00
75656;BME280;64252;51.094;13.714;2022-10-29T04:20:29;101123.50;;;10.21;100.00
75656;BME280;64252;51.094;13.714;2022-10-29T04:22:54;101125.94;;;10.23;100.00
75656;BME280;64252;51.094;13.714;2022-10-29T04:25:20;101125.88;;;10.19;100.00
75656;BME280;64252;51.094;13.714;2022-10-29T04:27:45;101135.75;;;10.13;100.00
75656;BME280;64252;51.094;13.714;2022-10-29T04:30:11;101127.59;;;10.08;100.00
75656;BME280;64252;51.094;13.714;2022-10-29T04:32:37;101124.69;;;10.04;100.00
75656;BME280;64252;51.094;13.714;2022-10-29T04:35:02;101121.31;;;9.99;100.00
75656;BME280;64252;51.094;13.714;2022-10-29T04:37:28;101134.59;;;9.98;100.00
75656;BME280;64252;51.094;13.714;2022-10-29T04:39:54;101130.69;;;10.03;100.00
75656;BME280;64252;51.094;13.714;2022-10-29T04:42:19;101126.16;;;9.98;100.00
75656;BME280;64252;51.094;13.714;2022-10-29T04:44:45;101131.28;;;9.93;100.00
75656;BME280;64252;51.094;13.714;2022-10-29T04:47:10;101119.59;;;9.94;100.00
75656;BME280;64252;51.094;13.714;2022-10-29T04:49:36;101131.63;;;9.91;100.00
75656;BME280;64252;51.094;13.714;2022-10-29T04:52:01;101121.16;;;9.92;100.00
75656;BME280;64252;51.094;13.714;2022-10-29T04:54:29;101134.72;;;9.86;100.00
75656;BME280;64252;51.094;13.714;2022-10-29T04:56:54;101125.00;;;9.84;100.00
75656;BME280;64252;51.094;13.714;2022-10-29T04:59:20;101116.84;;;9.79;100.00
75656;BME280;64252;51.094;13.714;2022-10-29T05:01:45;101124.00;;;9.76;100.00
75656;BME280;64252;51.094;13.714;2022-10-29T05:04:11;101118.00;;;9.78;100.00
75656;BME280;64252;51.094;13.714;2022-10-29T05:06:36;101122.38;;;9.75;100.00
75656;BME280;64252;51.094;13.714;2022-10-29T05:09:02;101122.75;;;9.74;100.00
75656;BME280;64252;51.094;13.714;2022-10-29T05:11:28;101122.56;;;9.66;100.00
75656;BME280;64252;51.094;13.714;2022-10-29T05:13:53;101127.84;;;9.68;100.00
75656;BME280;64252;51.094;13.714;2022-10-29T05:16:19;101136.75;;;9.70;100.00
75656;BME280;64252;51.094;13.714;2022-10-29T05:18:44;101130.66;;;9.68;100.00
75656;BME280;64252;51.094;13.714;2022-10-29T05:21:10;101128.66;;;9.68;100.00
75656;BME280;64252;51.094;13.714;2022-10-29T05:23:35;101131.03;;;9.66;100.00
75656;BME280;64252;51.094;13.714;2022-10-29T05:26:01;101144.50;;;9.73;100.00
75656;BME280;64252;51.094;13.714;2022-10-29T05:28:27;101140.31;;;9.83;100.00
75656;BME280;64252;51.094;13.714;2022-10-29T05:30:53;101149.81;;;9.94;100.00
75656;BME280;64252;51.094;13.714;2022-10-29T05:33:20;101158.53;;;10.04;100.00
75656;BME280;64252;51.094;13.714;2022-10-29T05:35:46;101149.25;;;10.04;100.00
75656;BME280;64252;51.094;13.714;2022-10-29T05:38:13;101140.44;;;10.05;100.00
75656;BME280;64252;51.094;13.714;2022-10-29T05:40:39;101138.59;;;10.13;100.00
75656;BME280;64252;51.094;13.714;2022-10-29T05:43:07;101139.50;;;10.17;100.00
75656;BME280;64252;51.094;13.714;2022-10-29T05:45:32;101138.81;;;10.20;100.00
75656;BME280;64252;51.094;13.714;2022-10-29T05:48:00;101137.22;;;10.23;100.00
75656;BME280;64252;51.094;13.714;2022-10-29T05:50:28;101147.81;;;10.26;100.00
75656;BME280;64252;51.094;13.714;2022-10-29T05:53:00;101160.41;;;10.32;100.00
75656;BME280;64252;51.094;13.714;2022-10-29T05:55:26;101156.69;;;10.28;100.00
75656;BME280;64252;51.094;13.714;2022-10-29T05:57:59;101158.97;;;10.22;100.00
75656;BME280;64252;51.094;13.714;2022-10-29T06:00:26;101150.81;;;10.17;100.00
75656;BME280;64252;51.094;13.714;2022-10-29T06:02:54;101153.16;;;10.15;100.00
75656;BME280;64252;51.094;13.714;2022-10-29T06:05:20;101149.88;;;10.13;100.00
75656;BME280;64252;51.094;13.714;2022-10-29T06:07:57;101148.25;;;10.12;100.00
75656;BME280;64252;51.094;13.714;2022-10-29T06:10:24;101144.16;;;10.09;100.00
75656;BME280;64252;51.094;13.714;2022-10-29T06:12:54;101149.88;;;10.13;100.00
75656;BME280;64252;51.094;13.714;2022-10-29T06:15:22;101151.09;;;10.12;100.00
75656;BME280;64252;51.094;13.714;2022-10-29T06:17:48;101155.53;;;10.13;100.00
75656;BME280;64252;51.094;13.714;2022-10-29T06:20:16;101161.16;;;10.13;100.00
75656;BME280;64252;51.094;13.714;2022-10-29T06:22:44;101163.31;;;10.16;100.00
75656;BME280;64252;51.094;13.714;2022-10-29T06:25:10;101160.56;;;10.20;100.00
75656;BME280;64252;51.094;13.714;2022-10-29T06:27:44;101154.97;;;10.23;100.00
75656;BME280;64252;51.094;13.714;2022-10-29T06:30:15;101161.53;;;10.27;100.00
75656;BME280;64252;51.094;13.714;2022-10-29T06:32:46;101160.06;;;10.33;100.00
75656;BME280;64252;51.094;13.714;2022-10-29T06:35:30;101168.59;;;10.37;100.00
75656;BME280;64252;51.094;13.714;2022-10-29T06:37:58;101173.13;;;10.41;100.00
75656;BME280;64252;51.094;13.714;2022-10-29T06:40:24;101175.69;;;10.46;100.00
75656;BME280;64252;51.094;13.714;2022-10-29T06:43:00;101178.22;;;10.51;100.00
75656;BME280;64252;51.094;13.714;2022-10-29T06:45:26;101185.56;;;10.56;100.00
75656;BME280;64252;51.094;13.714;2022-10-29T06:47:52;101186.47;;;10.60;100.00
75656;BME280;64252;51.094;13.714;2022-10-29T06:50:21;101177.28;;;10.63;100.00
75656;BME280;64252;51.094;13.714;2022-10-29T06:53:00;101188.28;;;10.68;100.00
75656;BME280;64252;51.094;13.714;2022-10-29T06:55:26;101181.94;;;10.75;100.00
75656;BME280;64252;51.094;13.714;2022-10-29T06:57:56;101183.00;;;10.86;100.00
75656;BME280;64252;51.094;13.714;2022-10-29T07:00:22;101179.88;;;10.91;100.00
75656;BME280;64252;51.094;13.714;2022-10-29T07:02:48;101177.59;;;10.96;100.00
75656;BME280;64252;51.094;13.714;2022-10-29T07:05:13;101176.88;;;11.03;100.00
75656;BME280;64252;51.094;13.714;2022-10-29T07:07:39;101170.19;;;11.11;100.00
75656;BME280;64252;51.094;13.714;2022-10-29T07:10:05;101166.75;;;11.21;100.00
75656;BME280;64252;51.094;13.714;2022-10-29T07:12:30;101173.44;;;11.32;99.70
75656;BME280;64252;51.094;13.714;2022-10-29T07:14:56;101189.09;;;11.49;97.18
75656;BME280;64252;51.094;13.714;2022-10-29T07:17:21;101192.16;;;11.63;96.91
75656;BME280;64252;51.094;13.714;2022-10-29T07:19:47;101188.66;;;11.70;96.16
75656;BME280;64252;51.094;13.714;2022-10-29T07:22:12;101184.78;;;11.78;96.20
75656;BME280;64252;51.094;13.714;2022-10-29T07:24:38;101174.34;;;11.82;95.75
75656;BME280;64252;51.094;13.714;2022-10-29T07:27:03;101176.75;;;11.80;95.43
75656;BME280;64252;51.094;13.714;2022-10-29T07:29:31;101175.56;;;11.81;95.05
75656;BME280;64252;51.094;13.714;2022-10-29T07:31:56;101178.50;;;11.88;94.32
75656;BME280;64252;51.094;13.714;2022-10-29T07:34:22;101166.66;;;12.05;93.50
75656;BME280;64252;51.094;13.714;2022-10-29T07:36:47;101173.28;;;12.16;92.93
75656;BME280;64252;51.094;13.714;2022-10-29T07:39:13;101178.31;;;12.26;92.52
75656;BME280;64252;51.094;13.714;2022-10-29T07:41:38;101163.88;;;12.35;91.58
75656;BME280;64252;51.094;13.714;2022-10-29T07:44:04;101173.75;;;12.48;90.98
75656;BME280;64252;51.094;13.714;2022-10-29T07:46:29;101173.97;;;12.62;89.29
75656;BME280;64252;51.094;13.714;2022-10-29T07:48:55;101177.81;;;12.77;89.86
75656;BME280;64252;51.094;13.714;2022-10-29T07:51:20;101184.81;;;12.87;88.57
75656;BME280;64252;51.094;13.714;2022-10-29T07:53:46;101180.00;;;12.91;87.59
75656;BME280;64252;51.094;13.714;2022-10-29T07:56:11;101176.97;;;13.06;87.21
75656;BME280;64252;51.094;13.714;2022-10-29T07:58:37;101181.53;;;13.14;86.92
75656;BME280;64252;51.094;13.714;2022-10-29T08:01:03;101171.47;;;13.17;87.20
75656;BME280;64252;51.094;13.714;2022-10-29T08:03:29;101174.78;;;13.23;86.82
75656;BME280;64252;51.094;13.714;2022-10-29T08:05:57;101188.59;;;13.28;85.68
75656;BME280;64252;51.094;13.714;2022-10-29T08:08:23;101185.84;;;13.35;85.90
75656;BME280;64252;51.094;13.714;2022-10-29T08:10:49;101174.16;;;13.43;85.49
75656;BME280;64252;51.094;13.714;2022-10-29T08:13:15;101183.16;;;13.52;85.43
75656;BME280;64252;51.094;13.714;2022-10-29T08:15:46;101171.94;;;13.63;85.69
75656;BME280;64252;51.094;13.714;2022-10-29T08:18:14;101183.78;;;13.72;85.88
75656;BME280;64252;51.094;13.714;2022-10-29T08:20:41;101176.59;;;13.85;84.28
75656;BME280;64252;51.094;13.714;2022-10-29T08:23:07;101169.81;;;13.97;83.41
75656;BME280;64252;51.094;13.714;2022-10-29T08:25:32;101152.81;;;14.04;83.52
75656;BME280;64252;51.094;13.714;2022-10-29T08:28:00;101157.75;;;14.11;83.73
75656;BME280;64252;51.094;13.714;2022-10-29T08:30:27;101155.00;;;14.28;81.70
75656;BME280;64252;51.094;13.714;2022-10-29T08:32:52;101156.31;;;14.38;81.40
75656;BME280;64252;51.094;13.714;2022-10-29T08:35:18;101144.25;;;14.55;80.94
75656;BME280;64252;51.094;13.714;2022-10-29T08:37:44;101139.47;;;14.73;80.75
75656;BME280;64252;51.094;13.714;2022-10-29T08:45:47;101123.81;;;15.32;78.21
75656;BME280;64252;51.094;13.714;2022-10-29T08:53:40;101136.47;;;16.20;75.67
75656;BME280;64252;51.094;13.714;2022-10-29T08:56:18;101118.91;;;16.39;74.00
75656;BME280;64252;51.094;13.714;2022-10-29T09:01:35;101125.88;;;16.38;74.17
75656;BME280;64252;51.094;13.714;2022-10-29T09:04:02;101122.56;;;16.40;73.42
75656;BME280;64252;51.094;13.714;2022-10-29T09:07:24;101120.97;;;16.35;74.24
75656;BME280;64252;51.094;13.714;2022-10-29T09:17:51;101128.19;;;16.79;71.83
75656;BME280;64252;51.094;13.714;2022-10-29T09:20:45;101123.31;;;16.72;71.99
75656;BME280;64252;51.094;13.714;2022-10-29T09:23:34;101123.28;;;16.83;71.99
75656;BME280;64252;51.094;13.714;2022-10-29T09:26:19;101106.94;;;16.94;71.99
75656;BME280;64252;51.094;13.714;2022-10-29T09:31:49;101104.88;;;16.98;72.17
75656;BME280;64252;51.094;13.714;2022-10-29T09:34:24;101104.03;;;17.01;70.96
75656;BME280;64252;51.094;13.714;2022-10-29T09:36:52;101097.13;;;16.98;71.73
75656;BME280;64252;51.094;13.714;2022-10-29T09:39:37;101101.25;;;16.87;71.09
75656;BME280;64252;51.094;13.714;2022-10-29T09:42:12;101106.16;;;16.83;72.26
75656;BME280;64252;51.094;13.714;2022-10-29T09:44:50;101109.50;;;16.71;72.81
75656;BME280;64252;51.094;13.714;2022-10-29T09:47:31;101110.31;;;16.71;72.92
75656;BME280;64252;51.094;13.714;2022-10-29T09:52:41;101119.09;;;17.05;72.81
75656;BME280;64252;51.094;13.714;2022-10-29T09:55:15;101120.63;;;17.20;71.98
75656;BME280;64252;51.094;13.714;2022-10-29T09:57:42;101114.91;;;17.27;71.73
75656;BME280;64252;51.094;13.714;2022-10-29T10:00:24;101121.34;;;17.38;71.44
75656;BME280;64252;51.094;13.714;2022-10-29T10:03:03;101125.31;;;17.51;70.70
75656;BME280;64252;51.094;13.714;2022-10-29T10:05:34;101122.00;;;17.64;70.73
75656;BME280;64252;51.094;13.714;2022-10-29T10:10:32;101125.59;;;18.19;68.83
75656;BME280;64252;51.094;13.714;2022-10-29T10:13:03;101121.44;;;18.27;67.90
75656;BME280;64252;51.094;13.714;2022-10-29T10:15:33;101114.25;;;18.12;68.27
75656;BME280;64252;51.094;13.714;2022-10-29T10:21:12;101105.25;;;18.55;66.45
75656;BME280;64252;51.094;13.714;2022-10-29T10:23:42;101101.19;;;18.49;66.63
75656;BME280;64252;51.094;13.714;2022-10-29T10:26:38;101096.00;;;18.36;67.11
75656;BME280;64252;51.094;13.714;2022-10-29T10:31:45;101081.91;;;18.56;66.68
75656;BME280;64252;51.094;13.714;2022-10-29T10:34:21;101087.78;;;18.42;67.74
75656;BME280;64252;51.094;13.714;2022-10-29T10:36:55;101087.06;;;18.34;68.37
75656;BME280;64252;51.094;13.714;2022-10-29T10:39:29;101077.25;;;18.32;68.68
75656;BME280;64252;51.094;13.714;2022-10-29T10:41:57;101079.34;;;18.31;68.69
75656;BME280;64252;51.094;13.714;2022-10-29T10:44:24;101075.63;;;18.34;68.52
75656;BME280;64252;51.094;13.714;2022-10-29T10:46:52;101066.03;;;18.14;68.97
75656;BME280;64252;51.094;13.714;2022-10-29T10:49:34;101070.50;;;18.53;68.11
75656;BME280;64252;51.094;13.714;2022-10-29T10:52:05;101064.72;;;18.90;66.37
75656;BME280;64252;51.094;13.714;2022-10-29T10:54:40;101065.47;;;19.24;65.93
75656;BME280;64252;51.094;13.714;2022-10-29T11:05:00;101077.97;;;19.07;66.37
75656;BME280;64252;51.094;13.714;2022-10-29T11:07:31;101066.78;;;19.16;66.35
75656;BME280;64252;51.094;13.714;2022-10-29T11:10:02;101064.78;;;19.44;65.24
75656;BME280;64252;51.094;13.714;2022-10-29T11:12:33;101062.06;;;19.83;65.08
75656;BME280;64252;51.094;13.714;2022-10-29T11:20:37;101039.13;;;19.83;63.57
75656;BME280;64252;51.094;13.714;2022-10-29T11:23:47;101043.38;;;19.75;63.58
75656;BME280;64252;51.094;13.714;2022-10-29T11:26:18;101038.28;;;19.86;63.98
75656;BME280;64252;51.094;13.714;2022-10-29T11:32:01;101024.53;;;19.51;64.29
75656;BME280;64252;51.094;13.714;2022-10-29T11:37:19;101009.13;;;19.68;64.50
75656;BME280;64252;51.094;13.714;2022-10-29T11:40:01;101006.53;;;19.73;64.01
75656;BME280;64252;51.094;13.714;2022-10-29T11:42:28;101006.03;;;19.79;63.99
75656;BME280;64252;51.094;13.714;2022-10-29T11:44:57;100999.00;;;19.83;63.58
75656;BME280;64252;51.094;13.714;2022-10-29T11:50:27;100998.19;;;19.83;64.33
75656;BME280;64252;51.094;13.714;2022-10-29T12:04:30;100977.78;;;20.00;65.65
75656;BME280;64252;51.094;13.714;2022-10-29T12:10:29;100967.84;;;20.25;64.07
75656;BME280;64252;51.094;13.714;2022-10-29T12:13:12;100974.22;;;20.36;63.89
75656;BME280;64252;51.094;13.714;2022-10-29T12:16:06;100976.09;;;20.23;64.44
75656;BME280;64252;51.094;13.714;2022-10-29T12:29:23;100964.59;;;19.37;67.16
75656;BME280;64252;51.094;13.714;2022-10-29T12:32:12;100975.31;;;19.33;67.27
75656;BME280;64252;51.094;13.714;2022-10-29T12:39:45;100958.81;;;19.40;67.50
75656;BME280;64252;51.094;13.714;2022-10-29T12:42:24;100950.22;;;19.44;66.83
75656;BME280;64252;51.094;13.714;2022-10-29T12:45:12;100940.84;;;19.40;66.51
75656;BME280;64252;51.094;13.714;2022-10-29T12:55:13;100932.50;;;19.25;67.73
75656;BME280;64252;51.094;13.714;2022-10-29T12:57:40;100930.38;;;19.29;67.75
75656;BME280;64252;51.094;13.714;2022-10-29T13:02:52;100934.59;;;19.21;67.90
75656;BME280;64252;51.094;13.714;2022-10-29T13:05:41;100935.47;;;19.18;68.00
75656;BME280;64252;51.094;13.714;2022-10-29T13:08:10;100931.13;;;19.10;68.63
75656;BME280;64252;51.094;13.714;2022-10-29T13:10:51;100935.22;;;19.09;67.68
75656;BME280;64252;51.094;13.714;2022-10-29T13:13:19;100928.25;;;19.10;68.77
75656;BME280;64252;51.094;13.714;2022-10-29T13:15:59;100922.75;;;18.96;68.79
75656;BME280;64252;51.094;13.714;2022-10-29T13:18:42;100919.41;;;19.01;68.75
75656;BME280;64252;51.094;13.714;2022-10-29T13:21:09;100913.56;;;19.08;68.20
75656;BME280;64252;51.094;13.714;2022-10-29T13:23:35;100909.56;;;19.02;68.66
75656;BME280;64252;51.094;13.714;2022-10-29T13:26:06;100903.91;;;18.99;68.35
75656;BME280;64252;51.094;13.714;2022-10-29T13:38:16;100907.38;;;18.87;69.67
75656;BME280;64252;51.094;13.714;2022-10-29T13:40:55;100910.88;;;18.71;69.44
75656;BME280;64252;51.094;13.714;2022-10-29T13:43:28;100924.75;;;18.46;71.10
75656;BME280;64252;51.094;13.714;2022-10-29T13:49:14;100920.75;;;18.06;72.40
75656;BME280;64252;51.094;13.714;2022-10-29T13:52:24;100917.78;;;17.82;72.55
75656;BME280;64252;51.094;13.714;2022-10-29T13:57:32;100917.34;;;17.46;74.39
75656;BME280;64252;51.094;13.714;2022-10-29T14:02:59;100925.00;;;17.12;76.16
75656;BME280;64252;51.094;13.714;2022-10-29T14:05:48;100926.75;;;16.99;76.52
75656;BME280;64252;51.094;13.714;2022-10-29T14:08:23;100920.72;;;16.90;76.68
75656;BME280;64252;51.094;13.714;2022-10-29T14:10:57;100925.25;;;16.80;76.88
75656;BME280;64252;51.094;13.714;2022-10-29T14:13:31;100923.59;;;16.83;76.99
75656;BME280;64252;51.094;13.714;2022-10-29T14:18:36;100924.44;;;16.80;77.11
75656;BME280;64252;51.094;13.714;2022-10-29T14:21:05;100921.97;;;16.82;77.23
75656;BME280;64252;51.094;13.714;2022-10-29T14:23:32;100913.78;;;16.87;76.99
75656;BME280;64252;51.094;13.714;2022-10-29T14:25:59;100923.53;;;16.93;77.06
75656;BME280;64252;51.094;13.714;2022-10-29T14:28:28;100921.50;;;16.94;76.79
75656;BME280;64252;51.094;13.714;2022-10-29T14:31:00;100923.53;;;16.93;76.57
75656;BME280;64252;51.094;13.714;2022-10-29T14:33:28;100917.03;;;16.89;77.03
75656;BME280;64252;51.094;13.714;2022-10-29T14:35:59;100926.81;;;16.88;77.21
75656;BME280;64252;51.094;13.714;2022-10-29T14:41:22;100927.69;;;16.82;77.42
75656;BME280;64252;51.094;13.714;2022-10-29T14:43:59;100928.50;;;16.82;76.94
75656;BME280;64252;51.094;13.714;2022-10-29T14:46:28;100923.59;;;16.83;76.84
75656;BME280;64252;51.094;13.714;2022-10-29T14:51:34;100927.31;;;16.80;77.30
75656;BME280;64252;51.094;13.714;2022-10-29T14:54:03;100917.97;;;16.76;77.49
75656;BME280;64252;51.094;13.714;2022-10-29T14:56:33;100929.38;;;16.72;77.58
75656;BME280;64252;51.094;13.714;2022-10-29T14:59:00;100927.81;;;16.64;77.89
75656;BME280;64252;51.094;13.714;2022-10-29T15:01:28;100922.91;;;16.57;78.30
75656;BME280;64252;51.094;13.714;2022-10-29T15:03:57;100927.06;;;16.49;78.43
75656;BME280;64252;51.094;13.714;2022-10-29T15:06:26;100927.09;;;16.46;78.85
75656;BME280;64252;51.094;13.714;2022-10-29T15:09:00;100918.97;;;16.41;78.95
75656;BME280;64252;51.094;13.714;2022-10-29T15:14:19;100926.41;;;16.20;80.02
75656;BME280;64252;51.094;13.714;2022-10-29T15:16:47;100930.53;;;16.09;80.16
75656;BME280;64252;51.094;13.714;2022-10-29T15:19:15;100927.31;;;15.96;81.19
75656;BME280;64252;51.094;13.714;2022-10-29T15:21:42;100914.31;;;15.88;81.36
75656;BME280;64252;51.094;13.714;2022-10-29T15:24:09;100926.56;;;15.78;81.92
75656;BME280;64252;51.094;13.714;2022-10-29T15:26:46;100932.31;;;15.60;82.09
75656;BME280;64252;51.094;13.714;2022-10-29T15:29:12;100929.09;;;15.44;82.84